createdAt,value
2022-12-20T00:00:52.517Z,5.70
2022-12-20T00:03:20.641Z,4.70
2022-12-20T00:05:48.447Z,5.43
2022-12-20T00:08:15.961Z,5.63
2022-12-20T00:10:44.522Z,4.73
2022-12-20T00:13:12.439Z,5.37
2022-12-20T00:15:39.514Z,4.83
2022-12-20T00:18:07.388Z,4.43
2022-12-20T00:20:35.320Z,5.23
2022-12-20T00:23:02.579Z,5.13
2022-12-20T00:25:29.783Z,3.73
2022-12-20T00:27:56.929Z,4.20
2022-12-20T00:30:24.106Z,4.20
2022-12-20T00:32:51.235Z,4.73
2022-12-20T00:35:18.363Z,6.93
2022-12-20T00:37:45.431Z,4.40
2022-12-20T00:40:12.611Z,3.87
2022-12-20T00:42:39.887Z,7.20
2022-12-20T00:45:07.207Z,5.10
2022-12-20T00:47:34.251Z,3.87
2022-12-20T00:50:01.325Z,4.80
2022-12-20T00:52:28.383Z,3.63
2022-12-20T00:54:55.523Z,3.93
2022-12-20T00:57:22.575Z,4.13
2022-12-20T00:59:49.624Z,4.83
2022-12-20T01:02:16.898Z,7.07
2022-12-20T01:04:44.547Z,4.93
2022-12-20T01:07:11.606Z,4.13
2022-12-20T01:09:38.700Z,4.20
2022-12-20T01:12:05.948Z,5.30
2022-12-20T01:14:33.046Z,4.73
2022-12-20T01:17:00.246Z,5.03
2022-12-20T01:19:27.587Z,4.43
2022-12-20T01:21:54.636Z,4.17
2022-12-20T01:24:21.856Z,5.77
2022-12-20T01:26:49.081Z,3.83
2022-12-20T01:29:16.205Z,5.53
2022-12-20T01:31:43.751Z,5.30
2022-12-20T01:34:11.113Z,4.03
2022-12-20T01:36:38.974Z,4.30
2022-12-20T01:39:08.653Z,8.53
2022-12-20T01:41:36.603Z,4.60
2022-12-20T01:44:05.588Z,3.53
2022-12-20T01:49:30.537Z,3.97
2022-12-20T01:52:04.726Z,3.60
2022-12-20T01:54:36.326Z,3.00
2022-12-20T01:57:05.755Z,6.00
2022-12-20T01:59:34.312Z,3.23
2022-12-20T02:02:03.752Z,3.83
2022-12-20T02:04:31.118Z,3.10
2022-12-20T02:06:58.207Z,3.90
2022-12-20T02:09:25.369Z,3.77
2022-12-20T02:11:52.456Z,4.43
2022-12-20T02:14:31.769Z,4.33
2022-12-20T02:17:07.698Z,5.73
2022-12-20T02:19:47.019Z,3.50
2022-12-20T02:22:14.100Z,9.00
2022-12-20T02:24:43.993Z,3.53
2022-12-20T02:27:23.469Z,3.30
2022-12-20T02:30:07.372Z,4.53
2022-12-20T02:32:39.972Z,4.43
2022-12-20T02:35:13.340Z,2.60
2022-12-20T02:37:53.507Z,3.87
2022-12-20T02:40:22.987Z,3.53
2022-12-20T02:42:52.012Z,3.47
2022-12-20T02:45:21.036Z,3.30
2022-12-20T02:47:57.748Z,2.90
2022-12-20T02:50:28.389Z,6.83
2022-12-20T02:52:55.915Z,3.40
2022-12-20T02:55:27.490Z,5.03
2022-12-20T02:58:02.382Z,3.40
2022-12-20T03:00:32.943Z,2.60
2022-12-20T03:03:19.382Z,3.83
2022-12-20T03:05:47.625Z,4.63
2022-12-20T03:08:14.679Z,4.00
2022-12-20T03:10:41.785Z,5.17
2022-12-20T03:13:09.046Z,3.80
2022-12-20T03:15:36.369Z,3.60
2022-12-20T03:18:04.070Z,3.23
2022-12-20T03:20:31.182Z,3.20
2022-12-20T03:22:58.213Z,5.00
2022-12-20T03:25:25.730Z,3.57
2022-12-20T03:27:52.776Z,3.50
2022-12-20T03:30:20.505Z,3.03
2022-12-20T03:32:47.575Z,3.17
2022-12-20T03:35:14.712Z,5.80
2022-12-20T03:37:43.010Z,4.07
2022-12-20T03:40:10.583Z,2.53
2022-12-20T03:42:37.745Z,2.90
2022-12-20T03:45:05.314Z,4.80
2022-12-20T03:47:32.514Z,4.10
2022-12-20T03:49:59.621Z,5.10
2022-12-20T03:52:26.698Z,3.17
2022-12-20T03:54:53.765Z,3.13
2022-12-20T03:57:20.857Z,3.70
2022-12-20T03:59:47.967Z,3.20
2022-12-20T04:02:15.179Z,4.70
2022-12-20T04:04:42.413Z,3.03
2022-12-20T04:07:09.553Z,4.07
2022-12-20T04:09:36.684Z,6.83
2022-12-20T04:12:03.780Z,5.53
2022-12-20T04:14:30.889Z,5.70
2022-12-20T04:16:57.991Z,3.33
2022-12-20T04:19:25.404Z,3.07
2022-12-20T04:21:52.702Z,3.10
2022-12-20T04:24:19.798Z,3.03
2022-12-20T04:26:47.136Z,4.33
2022-12-20T04:29:14.275Z,5.03
2022-12-20T04:31:42.043Z,4.37
2022-12-20T04:34:09.131Z,3.40
2022-12-20T04:36:36.208Z,4.67
2022-12-20T04:39:03.268Z,3.20
2022-12-20T04:41:30.334Z,4.20
2022-12-20T04:43:58.377Z,7.60
2022-12-20T04:46:26.656Z,5.30
2022-12-20T04:48:58.981Z,7.20
2022-12-20T04:51:27.523Z,3.70
2022-12-20T04:53:54.977Z,6.03
2022-12-20T04:56:23.117Z,6.60
2022-12-20T04:58:51.003Z,3.33
2022-12-20T05:01:18.576Z,6.80
2022-12-20T05:03:45.826Z,4.20
2022-12-20T05:06:13.316Z,4.47
2022-12-20T05:08:40.430Z,3.43
2022-12-20T05:11:07.586Z,6.43
2022-12-20T05:13:35.271Z,3.20
2022-12-20T05:16:02.571Z,4.37
2022-12-20T05:18:29.867Z,3.87
2022-12-20T05:21:19.326Z,4.90
2022-12-20T05:24:05.384Z,5.23
2022-12-20T05:26:34.048Z,4.13
2022-12-20T05:29:01.093Z,6.63
2022-12-20T05:31:28.239Z,4.73
2022-12-20T05:33:55.314Z,3.93
2022-12-20T05:36:22.528Z,4.10
2022-12-20T05:38:49.979Z,4.10
2022-12-20T05:41:17.082Z,9.40
2022-12-20T05:43:44.118Z,7.97
2022-12-20T05:46:11.318Z,6.77
2022-12-20T05:48:38.593Z,5.70
2022-12-20T05:51:06.055Z,5.67
2022-12-20T05:53:33.206Z,3.70
2022-12-20T05:56:01.348Z,4.40
2022-12-20T05:58:28.722Z,3.30
2022-12-20T06:00:56.277Z,3.80
2022-12-20T06:05:53.244Z,4.77
2022-12-20T06:08:21.345Z,6.07
2022-12-20T06:10:48.782Z,4.13
2022-12-20T06:13:15.826Z,3.80
2022-12-20T06:15:42.944Z,6.20
2022-12-20T06:18:11.428Z,3.87
2022-12-20T06:20:39.456Z,7.13
2022-12-20T06:23:09.835Z,6.83
2022-12-20T06:25:38.146Z,13.27
2022-12-20T06:28:05.768Z,5.37
2022-12-20T06:30:34.232Z,4.10
2022-12-20T06:33:02.028Z,7.07
2022-12-20T06:35:32.752Z,5.47
2022-12-20T06:37:59.999Z,4.93
2022-12-20T06:40:27.064Z,4.43
2022-12-20T06:42:54.742Z,6.03
2022-12-20T06:45:21.952Z,7.10
2022-12-20T06:47:48.992Z,7.07
2022-12-20T06:50:16.437Z,4.17
2022-12-20T06:52:43.597Z,7.27
2022-12-20T06:55:10.664Z,4.40
2022-12-20T06:57:37.816Z,6.60
2022-12-20T07:00:05.664Z,4.37
2022-12-20T07:02:32.909Z,4.03
2022-12-20T07:05:00.024Z,4.03
2022-12-20T07:07:27.075Z,4.40
2022-12-20T07:09:54.294Z,5.83
2022-12-20T07:12:21.381Z,6.40
2022-12-20T07:14:49.368Z,4.17
2022-12-20T07:17:16.617Z,7.40
2022-12-20T07:19:50.265Z,5.73
2022-12-20T07:22:18.000Z,4.07
2022-12-20T07:24:45.217Z,6.37
2022-12-20T07:27:12.409Z,6.53
2022-12-20T07:29:42.068Z,6.80
2022-12-20T07:32:09.413Z,7.97
2022-12-20T07:34:39.848Z,6.00
2022-12-20T07:37:08.566Z,7.47
2022-12-20T07:39:35.717Z,5.57
2022-12-20T07:42:02.914Z,6.20
2022-12-20T07:44:30.587Z,10.13
2022-12-20T07:46:57.761Z,7.63
2022-12-20T07:49:25.005Z,8.43
2022-12-20T07:51:54.186Z,4.83
2022-12-20T07:54:26.707Z,5.60
2022-12-20T07:56:55.553Z,6.17
2022-12-20T07:59:25.282Z,6.90
2022-12-20T08:01:52.865Z,4.20
2022-12-20T08:04:21.581Z,5.73
2022-12-20T08:06:49.343Z,4.23
2022-12-20T08:09:16.636Z,6.63
2022-12-20T08:11:45.131Z,5.20
2022-12-20T08:14:12.623Z,4.93
2022-12-20T08:16:39.763Z,5.93
2022-12-20T08:19:06.840Z,6.60
2022-12-20T08:21:33.925Z,4.70
2022-12-20T08:24:00.968Z,5.80
2022-12-20T08:26:28.151Z,6.47
2022-12-20T08:28:55.639Z,7.93
2022-12-20T08:31:22.953Z,5.10
2022-12-20T08:33:50.252Z,6.10
2022-12-20T08:36:17.376Z,4.33
2022-12-20T08:38:44.438Z,4.93
2022-12-20T08:41:12.877Z,4.40
2022-12-20T08:43:40.462Z,4.07
2022-12-20T08:46:13.283Z,4.23
2022-12-20T08:48:40.820Z,4.63
2022-12-20T08:51:09.895Z,3.57
2022-12-20T08:53:37.403Z,5.50
2022-12-20T08:56:09.041Z,3.77
2022-12-20T08:58:36.434Z,3.97
2022-12-20T09:01:06.888Z,5.70
2022-12-20T09:03:35.019Z,3.57
2022-12-20T09:06:03.100Z,5.13
2022-12-20T09:08:30.205Z,5.00
2022-12-20T09:11:04.536Z,3.63
2022-12-20T09:13:31.588Z,3.53
2022-12-20T09:16:01.056Z,3.97
2022-12-20T09:18:28.159Z,3.20
2022-12-20T09:20:55.259Z,5.47
2022-12-20T09:23:22.320Z,3.53
2022-12-20T09:25:53.787Z,5.33
2022-12-20T09:28:21.196Z,5.13
2022-12-20T09:30:48.302Z,4.47
2022-12-20T09:33:15.596Z,4.50
2022-12-20T09:35:46.855Z,6.90
2022-12-20T09:38:14.351Z,5.37
2022-12-20T09:40:45.512Z,4.00
2022-12-20T09:43:13.038Z,3.80
2022-12-20T09:45:40.137Z,3.37
2022-12-20T09:48:09.226Z,4.03
2022-12-20T09:50:51.613Z,3.47
2022-12-20T09:53:19.844Z,4.33
2022-12-20T09:56:06.597Z,3.67
2022-12-20T09:58:39.640Z,3.70
2022-12-20T10:01:25.307Z,6.87
2022-12-20T10:03:53.967Z,4.57
2022-12-20T10:06:27.234Z,3.93
2022-12-20T10:09:02.663Z,3.60
2022-12-20T10:11:36.249Z,2.83
2022-12-20T10:14:25.462Z,3.57
2022-12-20T10:17:17.113Z,2.93
2022-12-20T10:39:12.337Z,3.57
2022-12-20T10:41:44.923Z,3.87
2022-12-20T10:44:19.408Z,3.93
2022-12-20T10:46:48.259Z,4.30
2022-12-20T10:49:30.916Z,2.93
2022-12-20T10:51:59.855Z,4.00
2022-12-20T10:54:29.717Z,4.27
2022-12-20T10:56:58.051Z,5.13
2022-12-20T10:59:31.085Z,3.17
2022-12-20T11:01:59.955Z,5.67
2022-12-20T11:04:32.176Z,3.07
2022-12-20T11:07:00.154Z,2.63
2022-12-20T11:09:27.284Z,3.03
2022-12-20T11:12:14.094Z,6.00
2022-12-20T11:14:42.272Z,2.83
2022-12-20T11:17:15.497Z,3.70
2022-12-20T11:19:54.280Z,3.57
2022-12-20T11:22:21.396Z,4.00
2022-12-20T11:24:54.491Z,3.00
2022-12-20T11:27:30.807Z,3.87
2022-12-20T11:30:04.124Z,5.00
2022-12-20T11:32:31.263Z,7.13
2022-12-20T11:35:01.351Z,4.43
2022-12-20T11:37:32.072Z,2.93
2022-12-20T11:39:59.114Z,4.27
2022-12-20T11:42:39.261Z,4.33
2022-12-20T11:45:09.876Z,4.00
2022-12-20T11:47:55.963Z,3.17
2022-12-20T11:50:37.239Z,4.77
2022-12-20T11:56:20.843Z,3.60
2022-12-20T11:58:51.969Z,3.63
2022-12-20T12:01:21.443Z,5.77
2022-12-20T12:03:58.101Z,5.30
2022-12-20T12:06:28.304Z,7.63
2022-12-20T12:09:00.819Z,2.77
2022-12-20T12:14:43.085Z,3.90
2022-12-20T12:17:18.067Z,7.77
2022-12-20T12:19:46.880Z,3.13
2022-12-20T12:22:17.679Z,3.50
2022-12-20T12:24:47.697Z,4.27
2022-12-20T12:27:23.475Z,4.70
2022-12-20T12:29:50.679Z,4.07
2022-12-20T12:32:25.044Z,3.20
2022-12-20T12:34:52.423Z,7.33
2022-12-20T12:37:38.258Z,5.73
2022-12-20T12:40:05.363Z,8.43
2022-12-20T12:42:38.489Z,3.57
2022-12-20T12:45:17.052Z,3.40
2022-12-20T12:47:56.027Z,4.17
2022-12-20T12:50:42.974Z,3.07
2022-12-20T12:53:16.179Z,2.83
2022-12-20T12:55:48.417Z,6.27
2022-12-20T12:58:28.530Z,6.10
2022-12-20T13:01:13.750Z,5.43
2022-12-20T13:03:47.479Z,5.20
2022-12-20T13:06:23.949Z,4.87
2022-12-20T13:09:11.129Z,2.97
2022-12-20T13:11:46.529Z,5.60
2022-12-20T13:14:26.015Z,6.23
2022-12-20T13:17:12.767Z,3.20
2022-12-20T13:19:49.603Z,4.33
2022-12-20T13:22:26.370Z,4.50
2022-12-20T13:24:58.020Z,4.60
2022-12-20T13:27:25.208Z,4.03
2022-12-20T13:30:10.547Z,6.30
2022-12-20T13:32:49.609Z,4.10
2022-12-20T13:35:25.625Z,6.43
2022-12-20T13:37:55.414Z,4.83
2022-12-20T13:40:34.726Z,3.77
2022-12-20T13:43:09.533Z,5.40
2022-12-20T13:45:36.813Z,3.83
2022-12-20T13:48:11.085Z,5.77
2022-12-20T13:50:42.676Z,6.60
2022-12-20T13:53:17.371Z,3.73
2022-12-20T13:55:45.191Z,4.63
2022-12-20T13:58:13.989Z,4.97
2022-12-20T14:00:41.452Z,3.37
2022-12-20T14:03:17.638Z,4.47
2022-12-20T14:05:45.136Z,11.53
2022-12-20T14:08:16.680Z,5.57
2022-12-20T14:10:47.010Z,5.37
2022-12-20T14:13:19.801Z,4.90
2022-12-20T14:15:47.420Z,5.23
2022-12-20T14:18:19.159Z,4.00
2022-12-20T14:20:48.276Z,4.33
2022-12-20T14:23:18.036Z,7.13
2022-12-20T14:25:49.699Z,5.53
2022-12-20T14:28:26.512Z,4.30
2022-12-20T14:30:55.149Z,4.20
2022-12-20T14:33:26.107Z,6.87
2022-12-20T14:35:53.743Z,4.10
2022-12-20T14:38:25.754Z,5.20
2022-12-20T14:40:54.408Z,5.60
2022-12-20T14:43:35.833Z,5.70
2022-12-20T14:46:10.953Z,5.17
2022-12-20T14:48:38.125Z,4.50
2022-12-20T14:51:05.738Z,5.03
2022-12-20T14:53:33.023Z,4.80
2022-12-20T14:56:00.219Z,4.03
2022-12-20T14:58:31.934Z,6.90
2022-12-20T15:01:19.336Z,6.03
2022-12-20T15:03:57.152Z,5.50
2022-12-20T15:06:42.766Z,6.40
2022-12-20T15:09:09.861Z,5.07
2022-12-20T15:11:38.054Z,5.57
2022-12-20T15:14:11.051Z,5.30
2022-12-20T15:16:47.403Z,6.70
2022-12-20T15:19:14.453Z,7.23
2022-12-20T15:21:45.590Z,7.93
2022-12-20T15:24:14.694Z,6.83
2022-12-20T15:26:42.064Z,8.17
2022-12-20T15:29:17.049Z,6.30
2022-12-20T15:31:44.948Z,8.33
2022-12-20T15:34:14.788Z,7.50
2022-12-20T15:36:41.933Z,10.80
2022-12-20T15:39:13.237Z,7.33
2022-12-20T15:41:42.851Z,8.97
2022-12-20T15:44:17.532Z,8.17
2022-12-20T15:46:44.817Z,8.33
2022-12-20T15:49:19.053Z,9.13
2022-12-20T15:51:47.156Z,9.77
2022-12-20T15:54:28.758Z,9.40
2022-12-20T15:56:56.543Z,11.23
2022-12-20T16:02:20.912Z,9.97
2022-12-20T16:04:48.088Z,9.83
2022-12-20T16:07:15.241Z,10.80
2022-12-20T16:09:42.283Z,12.33
2022-12-20T16:12:19.267Z,9.60
2022-12-20T16:14:46.413Z,12.17
2022-12-20T16:17:17.527Z,13.13
2022-12-20T16:19:44.767Z,10.67
2022-12-20T16:22:19.053Z,10.57
2022-12-20T16:24:47.186Z,11.33
2022-12-20T16:27:14.436Z,10.53
2022-12-20T16:29:41.708Z,8.60
2022-12-20T16:32:19.609Z,9.10
2022-12-20T16:34:46.742Z,9.50
2022-12-20T16:37:14.166Z,9.80
2022-12-20T16:39:41.806Z,11.77
2022-12-20T16:42:15.641Z,12.60
2022-12-20T16:44:44.833Z,10.43
2022-12-20T16:47:12.605Z,12.33
2022-12-20T16:49:42.087Z,14.47
2022-12-20T16:52:18.664Z,13.43
2022-12-20T16:54:46.918Z,10.90
2022-12-20T16:57:14.202Z,10.23
2022-12-20T16:59:41.406Z,12.87
2022-12-20T17:02:21.019Z,12.00
2022-12-20T17:04:48.183Z,10.83
2022-12-20T17:07:16.146Z,12.77
2022-12-20T17:12:27.748Z,14.97
2022-12-20T17:14:54.913Z,12.80
2022-12-20T17:17:21.941Z,12.57
2022-12-20T17:19:49.028Z,13.20
2022-12-20T17:22:23.614Z,14.23
2022-12-20T17:24:50.972Z,15.87
2022-12-20T17:27:18.981Z,12.60
2022-12-20T17:29:46.115Z,12.00
2022-12-20T17:32:23.754Z,19.77
2022-12-20T17:34:51.124Z,18.37
2022-12-20T17:37:18.327Z,13.30
2022-12-20T17:39:45.505Z,11.47
2022-12-20T17:42:15.924Z,13.00
2022-12-20T17:44:43.458Z,12.70
2022-12-20T17:47:11.540Z,14.53
2022-12-20T17:49:38.930Z,14.83
2022-12-20T17:52:05.991Z,12.03
2022-12-20T17:54:39.751Z,15.57
2022-12-20T17:57:07.275Z,12.33
2022-12-20T17:59:34.367Z,13.30
2022-12-20T18:02:01.523Z,10.77
2022-12-20T18:04:28.949Z,14.77
2022-12-20T18:06:57.190Z,11.97
2022-12-20T18:09:24.398Z,12.47
2022-12-20T18:11:51.427Z,13.97
2022-12-20T18:14:18.512Z,14.83
2022-12-20T18:16:45.855Z,10.50
2022-12-20T18:19:15.742Z,13.63
2022-12-20T18:21:42.910Z,12.40
2022-12-20T18:24:14.147Z,12.53
2022-12-20T18:26:41.619Z,9.50
2022-12-20T18:29:16.195Z,11.03
2022-12-20T18:31:43.286Z,12.40
2022-12-20T18:34:10.440Z,13.77
2022-12-20T18:36:38.191Z,11.97
2022-12-20T18:39:06.556Z,13.73
2022-12-20T18:41:34.134Z,12.33
2022-12-20T18:44:02.666Z,11.60
2022-12-20T18:46:30.323Z,13.00
2022-12-20T18:48:58.156Z,13.60
2022-12-20T18:51:26.894Z,11.90
2022-12-20T18:53:55.040Z,15.63
2022-12-20T18:56:25.237Z,10.03
2022-12-20T18:58:52.904Z,14.43
2022-12-20T19:01:21.651Z,10.30
2022-12-20T19:03:50.051Z,13.03
2022-12-20T19:06:17.542Z,12.27
2022-12-20T19:08:44.834Z,15.63
2022-12-20T19:11:16.961Z,11.97
2022-12-20T19:13:44.718Z,11.10
2022-12-20T19:16:16.772Z,11.00
2022-12-20T19:18:44.281Z,14.60
2022-12-20T19:21:13.254Z,10.83
2022-12-20T19:23:41.030Z,14.83
2022-12-20T19:26:10.145Z,13.10
2022-12-20T19:28:37.233Z,15.20
2022-12-20T19:31:30.811Z,14.60
2022-12-20T19:34:00.007Z,12.87
2022-12-20T19:36:29.181Z,20.03
2022-12-20T19:38:58.277Z,14.20
2022-12-20T19:41:26.507Z,15.27
2022-12-20T19:43:53.591Z,14.17
2022-12-20T19:46:28.402Z,13.33
2022-12-20T19:48:56.456Z,15.43
2022-12-20T19:51:23.817Z,14.20
2022-12-20T19:53:51.711Z,16.90
2022-12-20T19:56:21.285Z,15.40
2022-12-20T19:58:48.384Z,19.97
2022-12-20T20:01:16.207Z,17.73
2022-12-20T20:03:43.361Z,16.90
2022-12-20T20:06:10.482Z,17.83
2022-12-20T20:08:37.652Z,22.23
2022-12-20T20:11:09.481Z,17.30
2022-12-20T20:13:37.071Z,23.07
2022-12-20T20:16:04.696Z,18.40
2022-12-20T20:18:34.384Z,19.17
2022-12-20T20:21:05.464Z,18.67
2022-12-20T20:23:32.571Z,19.83
2022-12-20T20:26:00.046Z,16.40
2022-12-20T20:28:32.418Z,23.53
2022-12-20T20:31:00.531Z,16.93
2022-12-20T20:33:27.965Z,17.37
2022-12-20T20:35:59.625Z,17.33
2022-12-20T20:38:27.309Z,20.33
2022-12-20T20:40:54.564Z,19.33
2022-12-20T20:43:21.878Z,20.13
2022-12-20T20:45:49.407Z,19.20
2022-12-20T20:48:16.902Z,19.50
2022-12-20T20:50:46.834Z,19.23
2022-12-20T20:53:14.221Z,19.57
2022-12-20T20:55:41.333Z,24.27
2022-12-20T20:58:08.411Z,20.37
2022-12-20T21:00:35.657Z,22.67
2022-12-20T21:03:02.974Z,21.90
2022-12-20T21:08:17.456Z,22.33
2022-12-20T21:10:44.734Z,20.57
2022-12-20T21:13:12.115Z,24.37
2022-12-20T21:15:40.705Z,21.00
2022-12-20T21:18:07.899Z,20.10
2022-12-20T21:20:35.142Z,19.90
2022-12-20T21:23:02.310Z,19.40
2022-12-20T21:25:29.404Z,26.03
2022-12-20T21:27:57.112Z,21.90
2022-12-20T21:30:24.432Z,21.03
2022-12-20T21:32:51.632Z,21.53
2022-12-20T21:35:18.694Z,21.60
2022-12-20T21:37:45.949Z,24.50
2022-12-20T21:40:13.852Z,22.93
2022-12-20T21:42:40.997Z,19.80
2022-12-20T21:45:08.496Z,22.83
2022-12-20T21:47:36.062Z,20.13
2022-12-20T21:50:03.159Z,19.00
2022-12-20T21:52:30.783Z,20.53
2022-12-20T21:54:57.813Z,22.40
2022-12-20T21:57:24.903Z,22.50
2022-12-20T21:59:52.252Z,20.97
2022-12-20T22:02:19.652Z,20.80
2022-12-20T22:04:47.183Z,24.17
2022-12-20T22:07:14.285Z,22.87
2022-12-20T22:09:41.439Z,21.53
2022-12-20T22:12:08.549Z,25.53
2022-12-20T22:14:35.759Z,23.57
2022-12-20T22:17:02.834Z,21.90
2022-12-20T22:19:29.930Z,22.33
2022-12-20T22:21:58.507Z,22.87
2022-12-20T22:24:25.833Z,27.30
2022-12-20T22:26:52.958Z,23.03
2022-12-20T22:29:20.215Z,24.50
2022-12-20T22:31:50.012Z,23.73
2022-12-20T22:34:17.119Z,25.63
2022-12-20T22:36:44.170Z,26.03
2022-12-20T22:39:11.252Z,22.87
2022-12-20T22:41:38.370Z,26.67
2022-12-20T22:44:05.508Z,28.07
2022-12-20T22:46:32.820Z,27.97
2022-12-20T22:49:01.248Z,29.53
2022-12-20T22:51:30.953Z,30.63
2022-12-20T22:53:58.800Z,27.97
2022-12-20T22:56:25.871Z,26.50
2022-12-20T22:58:52.935Z,25.93
2022-12-20T23:01:20.816Z,28.67
2022-12-20T23:03:48.695Z,25.47
2022-12-20T23:06:18.199Z,28.37
2022-12-20T23:08:45.696Z,26.40
2022-12-20T23:11:41.941Z,25.70
2022-12-20T23:14:30.474Z,25.53
2022-12-20T23:16:57.685Z,26.77
2022-12-20T23:19:25.069Z,26.03
2022-12-20T23:22:10.649Z,23.50
2022-12-20T23:24:37.935Z,24.00
2022-12-20T23:27:05.033Z,22.03
2022-12-20T23:29:32.145Z,22.33
2022-12-20T23:31:59.554Z,25.23
2022-12-20T23:34:26.705Z,26.57
2022-12-20T23:36:54.284Z,24.67
2022-12-20T23:39:21.368Z,25.93
2022-12-20T23:41:48.443Z,25.47
2022-12-20T23:44:15.520Z,23.63
2022-12-20T23:46:42.801Z,23.43
2022-12-20T23:49:09.950Z,21.93
2022-12-20T23:51:37.255Z,22.00
2022-12-20T23:54:04.544Z,21.60
2022-12-20T23:56:31.614Z,21.73
2022-12-20T23:58:58.757Z,23.00
